createdAt,value
2024-02-12T00:00:33.080Z,97641.73
2024-02-12T00:03:24.202Z,97643.03
2024-02-12T00:05:53.544Z,97643.67
2024-02-12T00:08:24.232Z,97644.35
2024-02-12T00:10:56.036Z,97648.29
2024-02-12T00:13:28.672Z,97646.36
2024-02-12T00:15:58.051Z,97648.03
2024-02-12T00:18:28.756Z,97652.86
2024-02-12T00:20:58.511Z,97653.07
2024-02-12T00:23:29.046Z,97655.77
2024-02-12T00:25:58.469Z,97661.68
2024-02-12T00:28:30.240Z,97663.75
2024-02-12T00:31:00.565Z,97662.78
2024-02-12T00:33:31.319Z,97665.38
2024-02-12T00:36:02.264Z,97664.70
2024-02-12T00:38:32.880Z,97664.29
2024-02-12T00:41:02.201Z,97669.45
2024-02-12T00:43:34.229Z,97672.69
2024-02-12T00:46:03.504Z,97673.59
2024-02-12T00:48:34.110Z,97678.09
2024-02-12T00:51:03.840Z,97681.56
2024-02-12T00:53:34.566Z,97683.86
2024-02-12T00:56:04.650Z,97685.29
2024-02-12T00:58:35.419Z,97687.02
2024-02-12T01:01:05.729Z,97688.16
2024-02-12T01:03:37.634Z,97692.77
2024-02-12T01:06:06.929Z,97689.51
2024-02-12T01:08:41.922Z,97691.85
2024-02-12T01:11:12.915Z,97690.70
2024-02-12T01:13:42.481Z,97693.42
2024-02-12T01:16:12.907Z,97692.58
2024-02-12T01:18:42.243Z,97694.38
2024-02-12T01:21:13.462Z,97696.92
2024-02-12T01:23:43.266Z,97697.27
2024-02-12T01:26:15.081Z,97696.86
2024-02-12T01:28:44.427Z,97695.38
2024-02-12T01:31:21.212Z,97698.38
2024-02-12T01:33:52.193Z,97701.96
2024-02-12T01:36:22.567Z,97701.07
2024-02-12T01:38:53.514Z,97703.86
2024-02-12T01:41:23.275Z,97705.53
2024-02-12T01:43:53.989Z,97703.64
2024-02-12T01:46:23.357Z,97707.31
2024-02-12T01:48:55.439Z,97706.67
2024-02-12T01:51:24.916Z,97705.04
2024-02-12T01:53:55.965Z,97707.88
2024-02-12T01:56:25.169Z,97712.38
2024-02-12T01:58:55.814Z,97710.48
2024-02-12T02:01:25.365Z,97710.15
2024-02-12T02:03:56.684Z,97709.67
2024-02-12T02:06:26.201Z,97711.55
2024-02-12T02:08:58.105Z,97712.63
2024-02-12T02:11:28.556Z,97718.43
2024-02-12T02:14:00.198Z,97718.92
2024-02-12T02:16:29.393Z,97721.00
2024-02-12T02:18:59.850Z,97720.67
2024-02-12T02:21:29.164Z,97720.95
2024-02-12T02:24:00.160Z,97725.05
2024-02-12T02:26:29.589Z,97727.40
2024-02-12T02:29:00.740Z,97733.49
2024-02-12T02:31:30.004Z,97731.59
2024-02-12T02:34:01.150Z,97735.64
2024-02-12T02:36:30.543Z,97736.61
2024-02-12T02:39:04.375Z,97739.06
2024-02-12T02:41:34.488Z,97740.23
2024-02-12T02:44:05.738Z,97736.64
2024-02-12T02:46:34.910Z,97739.60
2024-02-12T02:49:05.372Z,97738.19
2024-02-12T02:51:36.922Z,97734.06
2024-02-12T02:54:09.662Z,97734.95
2024-02-12T02:56:38.904Z,97735.42
2024-02-12T02:59:10.946Z,97733.84
2024-02-12T03:01:40.227Z,97737.46
2024-02-12T03:04:10.697Z,97736.73
2024-02-12T03:06:40.372Z,97741.80
2024-02-12T03:09:12.121Z,97742.83
2024-02-12T03:11:41.775Z,97744.52
2024-02-12T03:14:12.422Z,97747.20
2024-02-12T03:16:41.772Z,97747.00
2024-02-12T03:19:12.414Z,97751.70
2024-02-12T03:21:41.591Z,97753.82
2024-02-12T03:24:12.031Z,97757.34
2024-02-12T03:26:42.023Z,97764.44
2024-02-12T03:29:13.841Z,97765.02
2024-02-12T03:31:43.095Z,97769.88
2024-02-12T03:34:14.149Z,97768.52
2024-02-12T03:36:43.839Z,97769.75
2024-02-12T03:39:15.535Z,97767.79
2024-02-12T03:41:44.791Z,97769.35
2024-02-12T03:44:15.351Z,97768.32
2024-02-12T03:46:47.675Z,97769.27
2024-02-12T03:49:36.887Z,97774.68
2024-02-12T03:52:26.234Z,97782.15
2024-02-12T03:55:15.789Z,97782.97
2024-02-12T03:58:05.592Z,97786.78
2024-02-12T04:00:37.198Z,97791.13
2024-02-12T04:03:07.038Z,97794.74
2024-02-12T04:05:37.687Z,97796.02
2024-02-12T04:08:10.265Z,97797.23
2024-02-12T04:10:40.798Z,97802.63
2024-02-12T04:13:10.946Z,97803.57
2024-02-12T04:15:42.303Z,97807.42
2024-02-12T04:18:11.901Z,97807.20
2024-02-12T04:20:42.433Z,97807.77
2024-02-12T04:23:16.798Z,97807.38
2024-02-12T04:25:47.545Z,97811.91
2024-02-12T04:28:16.839Z,97814.86
2024-02-12T04:30:48.877Z,97816.73
2024-02-12T04:33:18.279Z,97816.83
2024-02-12T04:35:48.842Z,97817.89
2024-02-12T04:38:18.122Z,97816.09
2024-02-12T04:40:51.429Z,97823.02
2024-02-12T04:43:21.689Z,97823.67
2024-02-12T04:45:53.610Z,97828.90
2024-02-12T04:48:22.985Z,97827.27
2024-02-12T04:50:54.061Z,97828.70
2024-02-12T04:53:23.363Z,97831.31
2024-02-12T04:55:54.027Z,97832.60
2024-02-12T04:58:26.467Z,97830.07
2024-02-12T05:00:57.336Z,97836.38
2024-02-12T05:03:26.765Z,97840.09
2024-02-12T05:05:58.732Z,97842.10
2024-02-12T05:08:27.985Z,97843.55
2024-02-12T05:10:58.819Z,97845.38
2024-02-12T05:13:29.059Z,97848.35
2024-02-12T05:15:59.545Z,97845.89
2024-02-12T05:18:47.645Z,97847.04
2024-02-12T05:21:37.366Z,97852.09
2024-02-12T05:24:08.105Z,97855.98
2024-02-12T05:26:38.211Z,97857.91
2024-02-12T05:29:08.839Z,97862.59
2024-02-12T05:31:38.345Z,97864.07
2024-02-12T05:34:08.816Z,97866.08
2024-02-12T05:36:38.299Z,97867.19
2024-02-12T05:39:10.752Z,97869.54
2024-02-12T05:41:40.170Z,97870.88
2024-02-12T05:44:10.714Z,97875.53
2024-02-12T05:46:41.110Z,97877.13
2024-02-12T05:49:16.014Z,97881.80
2024-02-12T05:51:46.985Z,97884.08
2024-02-12T05:54:16.179Z,97885.67
2024-02-12T05:56:48.973Z,97885.89
2024-02-12T05:59:18.605Z,97888.92
2024-02-12T06:01:49.301Z,97893.55
2024-02-12T06:04:18.816Z,97895.19
2024-02-12T06:06:49.559Z,97894.84
2024-02-12T06:09:19.399Z,97897.92
2024-02-12T06:11:50.009Z,97903.40
2024-02-12T06:14:19.824Z,97903.77
2024-02-12T06:16:50.878Z,97905.35
2024-02-12T06:19:20.172Z,97905.82
2024-02-12T06:21:50.664Z,97910.70
2024-02-12T06:24:20.174Z,97912.36
2024-02-12T06:26:51.340Z,97912.33
2024-02-12T06:29:20.747Z,97916.10
2024-02-12T06:31:51.256Z,97915.61
2024-02-12T06:34:20.464Z,97920.11
2024-02-12T06:36:51.074Z,97924.72
2024-02-12T06:39:20.277Z,97928.16
2024-02-12T06:41:51.516Z,97928.79
2024-02-12T06:44:22.486Z,97930.20
2024-02-12T06:46:53.199Z,97931.71
2024-02-12T06:49:22.438Z,97936.91
2024-02-12T06:51:52.920Z,97937.55
2024-02-12T06:54:22.108Z,97941.86
2024-02-12T06:56:52.540Z,97943.98
2024-02-12T06:59:21.789Z,97947.14
2024-02-12T07:01:52.572Z,97950.29
2024-02-12T07:04:21.764Z,97951.21
2024-02-12T07:06:52.403Z,97952.67
2024-02-12T07:09:22.951Z,97955.41
2024-02-12T07:11:53.554Z,97956.35
2024-02-12T07:14:23.129Z,97960.55
2024-02-12T07:16:53.793Z,97962.15
2024-02-12T07:19:23.107Z,97962.80
2024-02-12T07:21:53.823Z,97966.05
2024-02-12T07:24:23.130Z,97965.02
2024-02-12T07:26:53.552Z,97966.70
2024-02-12T07:29:22.761Z,97969.31
2024-02-12T07:31:53.278Z,97969.14
2024-02-12T07:34:22.705Z,97974.73
2024-02-12T07:36:53.518Z,97973.23
2024-02-12T07:39:24.078Z,97976.76
2024-02-12T07:41:55.613Z,97981.16
2024-02-12T07:44:24.972Z,97979.35
2024-02-12T07:46:55.684Z,97980.19
2024-02-12T07:49:25.080Z,97985.70
2024-02-12T07:51:56.592Z,97986.71
2024-02-12T07:54:25.865Z,97990.27
2024-02-12T07:56:56.831Z,97990.02
2024-02-12T07:59:26.229Z,97993.55
2024-02-12T08:01:56.872Z,97993.39
2024-02-12T08:04:26.065Z,97997.46
2024-02-12T08:06:58.540Z,98001.98
2024-02-12T08:09:27.836Z,98007.06
2024-02-12T08:11:58.454Z,98007.30
2024-02-12T08:14:28.610Z,98004.89
2024-02-12T08:16:59.236Z,98007.55
2024-02-12T08:19:28.511Z,98010.17
2024-02-12T08:21:59.551Z,98015.17
2024-02-12T08:24:29.886Z,98013.05
2024-02-12T08:27:00.714Z,98016.41
2024-02-12T08:29:31.485Z,98020.05
2024-02-12T08:32:02.217Z,98019.84
2024-02-12T08:34:32.590Z,98025.42
2024-02-12T08:37:03.025Z,98026.71
2024-02-12T08:39:32.335Z,98029.40
2024-02-12T08:42:02.955Z,98025.71
2024-02-12T08:44:33.369Z,98029.45
2024-02-12T08:47:03.955Z,98036.04
2024-02-12T08:49:33.367Z,98038.65
2024-02-12T08:52:04.379Z,98044.73
2024-02-12T08:54:35.082Z,98046.02
2024-02-12T08:57:07.471Z,98045.86
2024-02-12T08:59:36.997Z,98048.07
2024-02-12T09:02:10.266Z,98048.09
2024-02-12T09:04:39.881Z,98052.91
2024-02-12T09:07:13.098Z,98053.90
2024-02-12T09:09:42.568Z,98056.85
2024-02-12T09:12:13.829Z,98063.23
2024-02-12T09:14:43.153Z,98069.54
2024-02-12T09:17:17.292Z,98070.50
2024-02-12T09:19:46.647Z,98072.54
2024-02-12T09:22:17.658Z,98073.18
2024-02-12T09:24:46.655Z,98078.14
2024-02-12T09:27:17.284Z,98078.51
2024-02-12T09:29:49.114Z,98084.26
2024-02-12T09:32:19.909Z,98084.18
2024-02-12T09:34:49.072Z,98088.11
2024-02-12T09:37:20.296Z,98095.16
2024-02-12T09:39:49.516Z,98090.94
2024-02-12T09:42:20.044Z,98094.42
2024-02-12T09:44:49.139Z,98096.50
2024-02-12T09:47:19.735Z,98096.56
2024-02-12T09:49:49.892Z,98096.55
2024-02-12T09:52:20.721Z,98102.34
2024-02-12T09:54:50.642Z,98104.18
2024-02-12T09:57:21.171Z,98103.65
2024-02-12T09:59:52.718Z,98102.23
2024-02-12T10:02:25.562Z,98110.09
2024-02-12T10:04:56.295Z,98106.80
2024-02-12T10:07:36.516Z,98109.68
2024-02-12T10:10:09.139Z,98114.23
2024-02-12T10:12:38.481Z,98110.69
2024-02-12T10:15:09.230Z,98114.19
2024-02-12T10:17:38.461Z,98113.34
2024-02-12T10:20:11.524Z,98110.56
2024-02-12T10:22:41.604Z,98110.90
2024-02-12T10:25:12.659Z,98109.30
2024-02-12T10:27:42.052Z,98111.55
2024-02-12T10:30:17.030Z,98109.09
2024-02-12T10:32:52.043Z,98108.71
2024-02-12T10:35:22.263Z,98109.23
2024-02-12T10:37:53.019Z,98109.22
2024-02-12T10:40:24.768Z,98109.80
2024-02-12T10:42:55.362Z,98110.52
2024-02-12T10:45:24.584Z,98111.96
2024-02-12T10:47:56.351Z,98110.08
2024-02-12T10:50:26.090Z,98110.91
2024-02-12T10:52:57.137Z,98111.92
2024-02-12T10:55:26.986Z,98111.36
2024-02-12T10:57:57.521Z,98115.84
2024-02-12T11:00:29.763Z,98115.39
2024-02-12T11:03:01.903Z,98118.21
2024-02-12T11:05:31.352Z,98118.65
2024-02-12T11:08:05.970Z,98122.61
2024-02-12T11:10:37.843Z,98124.89
2024-02-12T11:13:07.503Z,98126.19
2024-02-12T11:15:38.392Z,98129.23
2024-02-12T11:18:14.550Z,98130.42
2024-02-12T11:20:51.263Z,98132.55
2024-02-12T11:23:25.153Z,98134.09
2024-02-12T11:25:56.940Z,98136.61
2024-02-12T11:28:28.438Z,98138.53
2024-02-12T11:30:57.963Z,98142.05
2024-02-12T11:33:29.427Z,98144.63
2024-02-12T11:36:08.243Z,98143.14
2024-02-12T11:38:52.364Z,98145.55
2024-02-12T11:41:23.045Z,98146.36
2024-02-12T11:43:52.601Z,98145.63
2024-02-12T11:46:23.115Z,98149.05
2024-02-12T11:49:02.432Z,98148.13
2024-02-12T11:51:34.776Z,98146.90
2024-02-12T11:54:04.407Z,98152.65
2024-02-12T11:56:34.894Z,98151.23
2024-02-12T11:59:06.928Z,98149.39
2024-02-12T12:01:39.092Z,98152.08
2024-02-12T12:04:08.616Z,98146.39
2024-02-12T12:06:39.378Z,98150.24
2024-02-12T12:09:10.242Z,98150.85
2024-02-12T12:11:43.446Z,98152.82
2024-02-12T12:14:12.927Z,98153.49
2024-02-12T12:17:27.205Z,98155.09
2024-02-12T12:19:36.787Z,98154.73
2024-02-12T12:22:07.816Z,98156.42
2024-02-12T12:24:39.453Z,98161.81
2024-02-12T12:27:08.844Z,98157.23
2024-02-12T12:29:39.420Z,98156.30
2024-02-12T12:32:12.060Z,98160.77
2024-02-12T12:34:43.503Z,98161.88
2024-02-12T12:37:16.424Z,98159.63
2024-02-12T12:39:46.933Z,98162.54
2024-02-12T12:42:16.121Z,98163.86
2024-02-12T12:44:47.637Z,98167.71
2024-02-12T12:47:17.007Z,98168.20
2024-02-12T12:49:48.363Z,98165.92
2024-02-12T12:52:17.619Z,98165.00
2024-02-12T12:54:48.639Z,98163.18
2024-02-12T12:57:18.432Z,98164.19
2024-02-12T12:59:49.098Z,98168.81
2024-02-12T13:02:18.509Z,98167.31
2024-02-12T13:04:56.396Z,98169.15
2024-02-12T13:07:25.883Z,98176.02
2024-02-12T13:09:56.659Z,98175.25
2024-02-12T13:12:26.110Z,98179.37
2024-02-12T13:14:56.562Z,98182.80
2024-02-12T13:17:27.218Z,98184.20
2024-02-12T13:19:57.830Z,98187.22
2024-02-12T13:22:28.072Z,98189.77
2024-02-12T13:25:07.282Z,98188.70
2024-02-12T13:27:42.525Z,98191.13
2024-02-12T13:30:13.054Z,98192.39
2024-02-12T13:32:48.342Z,98193.98
2024-02-12T13:35:19.065Z,98197.92
2024-02-12T13:37:48.528Z,98197.83
2024-02-12T13:40:24.606Z,98199.73
2024-02-12T13:42:58.397Z,98201.59
2024-02-12T13:45:27.698Z,98203.66
2024-02-12T13:47:58.448Z,98208.71
2024-02-12T13:50:28.080Z,98210.54
2024-02-12T13:52:58.936Z,98214.02
2024-02-12T13:55:28.585Z,98217.83
2024-02-12T13:57:59.105Z,98223.81
2024-02-12T14:00:46.809Z,98227.30
2024-02-12T14:03:19.504Z,98229.99
2024-02-12T14:05:49.034Z,98232.97
2024-02-12T14:08:19.880Z,98235.69
2024-02-12T14:10:50.389Z,98235.56
2024-02-12T14:13:22.155Z,98236.91
2024-02-12T14:16:05.374Z,98240.27
2024-02-12T14:18:44.201Z,98248.33
2024-02-12T14:21:16.059Z,98250.69
2024-02-12T14:23:45.265Z,98252.57
2024-02-12T14:26:18.059Z,98255.91
2024-02-12T14:28:47.482Z,98256.90
2024-02-12T14:31:18.633Z,98261.48
2024-02-12T14:33:49.311Z,98263.86
2024-02-12T14:36:22.457Z,98268.52
2024-02-12T14:38:51.880Z,98269.84
2024-02-12T14:41:22.487Z,98274.86
2024-02-12T14:43:51.834Z,98281.92
2024-02-12T14:46:22.370Z,98287.21
2024-02-12T14:48:51.736Z,98284.40
2024-02-12T14:51:23.431Z,98279.39
2024-02-12T14:53:52.934Z,98282.73
2024-02-12T14:56:23.613Z,98283.08
2024-02-12T14:58:53.479Z,98287.91
2024-02-12T15:01:27.091Z,98294.41
2024-02-12T15:03:56.427Z,98293.14
2024-02-12T15:06:26.908Z,98295.34
2024-02-12T15:08:57.449Z,98292.50
2024-02-12T15:11:27.968Z,98296.20
2024-02-12T15:13:57.763Z,98303.08
2024-02-12T15:16:29.023Z,98308.02
2024-02-12T15:18:59.785Z,98307.96
2024-02-12T15:21:30.305Z,98309.15
2024-02-12T15:23:59.473Z,98315.88
2024-02-12T15:26:31.045Z,98318.55
2024-02-12T15:29:01.785Z,98317.08
2024-02-12T15:31:33.539Z,98321.88
2024-02-12T15:34:02.967Z,98321.89
2024-02-12T15:36:33.766Z,98330.66
2024-02-12T15:39:03.054Z,98331.59
2024-02-12T15:41:33.633Z,98335.87
2024-02-12T15:44:02.901Z,98336.83
2024-02-12T15:46:35.144Z,98340.84
2024-02-12T15:49:04.716Z,98343.08
2024-02-12T15:51:35.835Z,98346.34
2024-02-12T15:54:07.002Z,98351.89
2024-02-12T15:56:38.356Z,98347.52
2024-02-12T15:59:07.734Z,98348.98
2024-02-12T16:01:41.804Z,98351.33
2024-02-12T16:04:11.730Z,98352.83
2024-02-12T16:06:42.392Z,98354.04
2024-02-12T16:09:11.663Z,98358.83
2024-02-12T16:11:43.043Z,98362.30
2024-02-12T16:14:13.049Z,98367.89
2024-02-12T16:16:43.846Z,98370.69
2024-02-12T16:19:13.588Z,98378.24
2024-02-12T16:21:46.540Z,98383.95
2024-02-12T16:24:15.738Z,98387.91
2024-02-12T16:26:46.361Z,98395.86
2024-02-12T16:29:17.983Z,98400.30
2024-02-12T16:31:51.062Z,98406.48
2024-02-12T16:34:20.537Z,98409.64
2024-02-12T16:36:52.866Z,98410.80
2024-02-12T16:39:22.086Z,98419.29
2024-02-12T16:41:52.729Z,98429.19
2024-02-12T16:44:22.069Z,98432.56
2024-02-12T16:46:52.558Z,98434.71
2024-02-12T16:49:21.941Z,98437.42
2024-02-12T16:51:52.791Z,98443.14
2024-02-12T16:54:22.188Z,98444.91
2024-02-12T16:56:54.033Z,98446.50
2024-02-12T16:59:23.599Z,98449.80
2024-02-12T17:01:54.082Z,98452.11
2024-02-12T17:04:23.289Z,98453.89
2024-02-12T17:06:53.958Z,98457.12
2024-02-12T17:09:23.436Z,98456.35
2024-02-12T17:11:54.611Z,98457.81
2024-02-12T17:14:23.888Z,98461.04
2024-02-12T17:16:54.816Z,98465.35
2024-02-12T17:19:24.123Z,98465.09
2024-02-12T17:21:54.848Z,98468.55
2024-02-12T17:24:24.024Z,98473.95
2024-02-12T17:26:55.472Z,98479.17
2024-02-12T17:29:25.031Z,98481.55
2024-02-12T17:31:55.817Z,98482.19
2024-02-12T17:34:27.048Z,98486.20
2024-02-12T17:36:57.588Z,98488.64
2024-02-12T17:39:27.205Z,98488.39
2024-02-12T17:41:59.582Z,98493.27
2024-02-12T17:44:28.772Z,98496.64
2024-02-12T17:47:00.401Z,98504.79
2024-02-12T17:49:29.779Z,98506.75
2024-02-12T17:52:00.253Z,98508.48
2024-02-12T17:54:29.547Z,98514.40
2024-02-12T17:57:00.148Z,98513.02
2024-02-12T17:59:29.795Z,98514.50
2024-02-12T18:02:01.001Z,98512.54
2024-02-12T18:04:31.371Z,98516.50
2024-02-12T18:07:02.702Z,98523.02
2024-02-12T18:09:33.380Z,98527.71
2024-02-12T18:12:06.935Z,98524.52
2024-02-12T18:14:36.656Z,98527.78
2024-02-12T18:17:11.115Z,98531.05
2024-02-12T18:19:49.780Z,98535.34
2024-02-12T18:22:23.391Z,98542.21
2024-02-12T18:24:52.778Z,98541.02
2024-02-12T18:27:23.314Z,98549.79
2024-02-12T18:29:52.551Z,98548.80
2024-02-12T18:32:24.177Z,98554.59
2024-02-12T18:34:53.441Z,98552.67
2024-02-12T18:37:25.662Z,98557.72
2024-02-12T18:39:55.045Z,98562.59
2024-02-12T18:42:31.805Z,98566.86
2024-02-12T18:45:03.886Z,98572.29
2024-02-12T18:47:33.510Z,98573.97
2024-02-12T18:50:05.042Z,98576.51
2024-02-12T18:52:34.332Z,98581.35
2024-02-12T18:55:11.667Z,98585.17
2024-02-12T18:57:43.830Z,98584.96
2024-02-12T19:00:14.349Z,98592.03
2024-02-12T19:02:45.871Z,98593.65
2024-02-12T19:05:15.578Z,98599.71
2024-02-12T19:07:46.618Z,98604.48
2024-02-12T19:10:17.973Z,98610.63
2024-02-12T19:12:50.854Z,98615.20
2024-02-12T19:15:20.152Z,98617.64
2024-02-12T19:17:51.676Z,98624.00
2024-02-12T19:20:21.162Z,98627.99
2024-02-12T19:22:51.934Z,98635.67
2024-02-12T19:25:21.135Z,98638.45
2024-02-12T19:27:52.430Z,98644.77
2024-02-12T19:30:21.583Z,98653.44
2024-02-12T19:32:54.077Z,98657.78
2024-02-12T19:35:27.981Z,98662.55
2024-02-12T19:38:01.234Z,98663.02
2024-02-12T19:40:33.725Z,98663.61
2024-02-12T19:43:06.355Z,98662.64
2024-02-12T19:45:35.699Z,98666.69
2024-02-12T19:48:07.847Z,98668.87
2024-02-12T19:50:37.618Z,98680.47
2024-02-12T19:53:08.859Z,98682.98
2024-02-12T19:55:38.119Z,98686.88
2024-02-12T19:58:08.761Z,98693.40
2024-02-12T20:00:38.013Z,98692.21
2024-02-12T20:03:08.742Z,98697.66
2024-02-12T20:05:39.070Z,98698.09
2024-02-12T20:08:09.811Z,98698.02
2024-02-12T20:10:39.453Z,98703.30
2024-02-12T20:13:09.986Z,98706.33
2024-02-12T20:15:41.131Z,98707.91
2024-02-12T20:18:11.840Z,98708.02
2024-02-12T20:20:41.523Z,98708.12
2024-02-12T20:23:12.157Z,98710.11
2024-02-12T20:25:41.505Z,98716.30
2024-02-12T20:28:14.070Z,98724.46
2024-02-12T20:30:43.405Z,98729.72
2024-02-12T20:33:14.363Z,98732.12
2024-02-12T20:35:43.940Z,98734.31
2024-02-12T20:38:14.700Z,98738.69
2024-02-12T20:40:44.483Z,98742.08
2024-02-12T20:43:16.500Z,98746.42
2024-02-12T20:45:45.741Z,98749.41
2024-02-12T20:48:18.961Z,98751.88
2024-02-12T20:50:48.346Z,98756.71
2024-02-12T20:53:19.692Z,98757.20
2024-02-12T20:55:49.723Z,98763.05
2024-02-12T20:58:20.225Z,98769.25
2024-02-12T21:00:49.462Z,98772.46
2024-02-12T21:03:19.951Z,98778.36
2024-02-12T21:05:50.241Z,98785.41
2024-02-12T21:08:20.841Z,98786.28
2024-02-12T21:10:50.609Z,98793.55
2024-02-12T21:13:21.134Z,98794.59
2024-02-12T21:15:50.850Z,98795.56
2024-02-12T21:18:21.493Z,98796.93
2024-02-12T21:20:51.268Z,98798.93
2024-02-12T21:23:22.322Z,98804.48
2024-02-12T21:25:51.746Z,98805.40
2024-02-12T21:28:22.353Z,98803.06
2024-02-12T21:30:53.537Z,98806.27
2024-02-12T21:33:24.163Z,98814.14
2024-02-12T21:35:53.716Z,98820.98
2024-02-12T21:38:33.528Z,98822.55
2024-02-12T21:41:27.059Z,98829.45
2024-02-12T21:43:58.080Z,98829.17
2024-02-12T21:46:27.277Z,98833.54
2024-02-12T21:48:58.169Z,98837.86
2024-02-12T21:51:27.537Z,98840.47
2024-02-12T21:53:58.317Z,98845.91
2024-02-12T21:56:27.562Z,98847.40
2024-02-12T21:58:58.070Z,98853.12
2024-02-12T22:01:28.126Z,98855.96
2024-02-12T22:04:00.239Z,98858.40
2024-02-12T22:06:29.656Z,98859.36
2024-02-12T22:09:00.398Z,98860.98
2024-02-12T22:11:33.367Z,98863.73
2024-02-12T22:14:04.310Z,98866.38
2024-02-12T22:16:35.573Z,98868.41
2024-02-12T22:19:06.250Z,98871.02
2024-02-12T22:21:38.590Z,98874.85
2024-02-12T22:24:09.097Z,98880.85
2024-02-12T22:26:38.303Z,98881.53
2024-02-12T22:29:09.154Z,98886.88
2024-02-12T22:31:39.359Z,98891.77
2024-02-12T22:34:11.377Z,98889.37
2024-02-12T22:36:40.630Z,98892.55
2024-02-12T22:39:11.259Z,98894.23
2024-02-12T22:41:40.914Z,98898.70
2024-02-12T22:44:11.556Z,98902.20
2024-02-12T22:46:40.800Z,98908.16
2024-02-12T22:49:11.348Z,98915.95
2024-02-12T22:51:40.946Z,98918.52
2024-02-12T22:54:12.506Z,98919.25
2024-02-12T22:56:41.715Z,98914.65
2024-02-12T22:59:12.557Z,98918.45
2024-02-12T23:01:41.930Z,98916.92
2024-02-12T23:04:21.873Z,98920.79
2024-02-12T23:06:52.728Z,98920.70
2024-02-12T23:09:22.430Z,98924.27
2024-02-12T23:11:53.154Z,98924.83
2024-02-12T23:14:25.163Z,98931.67
2024-02-12T23:16:55.881Z,98933.77
2024-02-12T23:19:25.359Z,98937.23
2024-02-12T23:21:55.880Z,98940.27
2024-02-12T23:24:25.190Z,98948.88
2024-02-12T23:26:55.745Z,98949.30
2024-02-12T23:29:25.130Z,98959.20
2024-02-12T23:31:56.308Z,98963.73
2024-02-12T23:34:25.927Z,98966.51
2024-02-12T23:36:56.794Z,98970.45
2024-02-12T23:39:30.401Z,98973.98
2024-02-12T23:42:01.547Z,98977.80
2024-02-12T23:44:30.854Z,98978.91
2024-02-12T23:47:02.270Z,98984.21
2024-02-12T23:49:32.234Z,98986.73
2024-02-12T23:52:02.831Z,98988.47
2024-02-12T23:54:34.260Z,98991.47
2024-02-12T23:57:04.934Z,98992.67
2024-02-12T23:59:34.216Z,98994.57
